createdAt,value
2022-09-10T00:01:23.574Z,84.08
2022-09-10T00:03:51.070Z,84.31
2022-09-10T00:06:19.182Z,84.29
2022-09-10T00:08:46.910Z,84.51
2022-09-10T00:11:15.026Z,84.16
2022-09-10T00:13:42.306Z,84.50
2022-09-10T00:16:12.267Z,84.11
2022-09-10T00:18:39.705Z,84.44
2022-09-10T00:21:10.313Z,84.56
2022-09-10T00:23:37.691Z,84.19
2022-09-10T00:26:25.991Z,84.66
2022-09-10T00:28:54.544Z,84.49
2022-09-10T00:31:22.792Z,84.54
2022-09-10T00:33:50.870Z,84.40
2022-09-10T00:36:23.978Z,84.51
2022-09-10T00:38:52.190Z,84.26
2022-09-10T00:41:21.481Z,84.57
2022-09-10T00:43:48.811Z,84.37
2022-09-10T00:46:24.286Z,84.35
2022-09-10T00:48:52.781Z,84.27
2022-09-10T00:51:19.928Z,84.37
2022-09-10T00:53:46.768Z,84.37
2022-09-10T00:56:14.347Z,85.03
2022-09-10T00:58:43.291Z,84.51
2022-09-10T01:01:10.284Z,84.34
2022-09-10T01:03:37.745Z,84.59
2022-09-10T01:06:05.444Z,84.88
2022-09-10T01:08:32.060Z,84.72
2022-09-10T01:11:17.285Z,84.57
2022-09-10T01:14:01.505Z,84.44
2022-09-10T01:16:27.984Z,84.37
2022-09-10T01:19:13.243Z,84.84
2022-09-10T01:21:52.589Z,85.21
2022-09-10T01:24:51.111Z,85.95
2022-09-10T01:27:23.459Z,85.30
2022-09-10T01:29:59.080Z,84.58
2022-09-10T01:32:35.314Z,84.75
2022-09-10T01:35:14.957Z,85.74
2022-09-10T01:37:47.434Z,84.58
2022-09-10T01:40:15.448Z,84.63
2022-09-10T01:42:42.422Z,84.48
2022-09-10T01:45:13.501Z,85.17
2022-09-10T01:47:40.168Z,85.07
2022-09-10T01:50:51.553Z,86.32
2022-09-10T01:53:39.799Z,85.17
2022-09-10T01:56:24.736Z,85.70
2022-09-10T01:58:54.659Z,84.80
2022-09-10T02:01:28.581Z,84.91
2022-09-10T02:04:04.439Z,84.66
2022-09-10T02:06:36.377Z,85.18
2022-09-10T02:09:03.446Z,86.03
2022-09-10T02:11:31.507Z,84.85
2022-09-10T02:13:59.409Z,85.32
2022-09-10T02:16:35.903Z,86.06
2022-09-10T02:19:04.058Z,85.19
2022-09-10T02:21:32.102Z,85.12
2022-09-10T02:24:05.931Z,85.94
2022-09-10T02:26:40.029Z,85.65
2022-09-10T02:29:07.671Z,85.50
2022-09-10T02:31:34.448Z,85.21
2022-09-10T02:34:03.230Z,85.47
2022-09-10T02:36:31.741Z,84.97
2022-09-10T02:38:59.400Z,85.26
2022-09-10T02:41:26.653Z,85.35
2022-09-10T02:43:53.306Z,85.67
2022-09-10T02:46:20.268Z,85.89
2022-09-10T02:48:46.943Z,86.71
2022-09-10T02:51:13.467Z,85.71
2022-09-10T02:53:40.141Z,85.58
2022-09-10T02:56:07.836Z,85.49
2022-09-10T02:58:34.513Z,85.75
2022-09-10T03:01:15.021Z,86.19
2022-09-10T03:03:41.852Z,86.16
2022-09-10T03:06:09.135Z,86.56
2022-09-10T03:08:35.977Z,86.22
2022-09-10T03:11:03.347Z,85.68
2022-09-10T03:13:29.814Z,86.06
2022-09-10T03:15:58.902Z,86.20
2022-09-10T03:18:27.815Z,85.60
2022-09-10T03:20:54.316Z,85.72
2022-09-10T03:23:20.843Z,85.83
2022-09-10T03:25:49.762Z,86.04
2022-09-10T03:28:21.785Z,85.89
2022-09-10T03:30:48.401Z,86.21
2022-09-10T03:33:15.152Z,86.39
2022-09-10T03:35:41.689Z,86.06
2022-09-10T03:38:08.156Z,86.65
2022-09-10T03:40:34.710Z,86.13
2022-09-10T03:43:02.913Z,85.64
2022-09-10T03:45:29.403Z,86.72
2022-09-10T03:47:55.962Z,86.27
2022-09-10T03:50:22.648Z,86.05
2022-09-10T03:52:50.162Z,85.65
2022-09-10T03:55:18.140Z,85.95
2022-09-10T03:57:45.713Z,85.88
2022-09-10T04:00:12.615Z,86.87
2022-09-10T04:02:41.494Z,86.38
2022-09-10T04:05:08.946Z,86.32
2022-09-10T04:07:36.693Z,85.85
2022-09-10T04:10:04.019Z,86.62
2022-09-10T04:12:30.880Z,86.34
2022-09-10T04:14:57.573Z,86.50
2022-09-10T04:17:25.550Z,86.92
2022-09-10T04:19:52.072Z,86.20
2022-09-10T04:22:18.584Z,87.77
2022-09-10T04:24:45.280Z,86.20
2022-09-10T04:27:11.949Z,86.19
2022-09-10T04:29:38.731Z,86.21
2022-09-10T04:32:05.785Z,86.10
2022-09-10T04:34:32.476Z,86.27
2022-09-10T04:36:58.949Z,86.00
2022-09-10T04:39:25.445Z,85.94
2022-09-10T04:41:51.957Z,86.22
2022-09-10T04:44:20.034Z,88.36
2022-09-10T04:46:47.822Z,87.08
2022-09-10T04:49:14.441Z,86.68
2022-09-10T04:51:41.160Z,87.22
2022-09-10T04:54:07.840Z,86.92
2022-09-10T04:56:34.715Z,87.01
2022-09-10T04:59:04.416Z,86.26
2022-09-10T05:01:31.335Z,86.47
2022-09-10T05:03:58.023Z,86.15
2022-09-10T05:06:24.765Z,86.31
2022-09-10T05:08:51.506Z,86.63
2022-09-10T05:11:20.039Z,86.14
2022-09-10T05:13:46.818Z,87.39
2022-09-10T05:16:14.045Z,87.08
2022-09-10T05:18:40.752Z,87.84
2022-09-10T05:21:07.453Z,87.07
2022-09-10T05:23:34.008Z,86.94
2022-09-10T05:26:00.570Z,86.60
2022-09-10T05:28:27.158Z,86.54
2022-09-10T05:30:53.660Z,86.53
2022-09-10T05:33:20.190Z,86.10
2022-09-10T05:35:49.174Z,87.07
2022-09-10T05:38:15.639Z,87.07
2022-09-10T05:40:42.954Z,87.54
2022-09-10T05:43:10.349Z,87.00
2022-09-10T05:45:37.371Z,86.75
2022-09-10T05:48:04.303Z,88.30
2022-09-10T05:50:31.637Z,87.18
2022-09-10T05:52:58.101Z,87.56
2022-09-10T05:55:25.142Z,87.12
2022-09-10T05:57:51.809Z,87.17
2022-09-10T06:00:18.831Z,87.21
2022-09-10T06:02:45.985Z,87.04
2022-09-10T06:05:13.000Z,87.69
2022-09-10T06:07:40.071Z,87.19
2022-09-10T06:10:07.880Z,87.38
2022-09-10T06:12:34.455Z,87.84
2022-09-10T06:15:01.028Z,87.72
2022-09-10T06:17:29.942Z,87.30
2022-09-10T06:19:56.480Z,87.28
2022-09-10T06:22:23.048Z,87.63
2022-09-10T06:27:15.519Z,87.59
2022-09-10T06:29:42.000Z,87.55
2022-09-10T06:32:09.932Z,87.79
2022-09-10T06:34:37.818Z,87.30
2022-09-10T06:37:05.290Z,87.22
2022-09-10T06:39:32.377Z,87.64
2022-09-10T06:41:59.706Z,87.57
2022-09-10T06:44:26.539Z,87.64
2022-09-10T06:47:32.483Z,87.42
2022-09-10T06:49:41.413Z,87.77
2022-09-10T06:52:08.612Z,87.44
2022-09-10T06:54:35.822Z,88.06
2022-09-10T06:57:04.494Z,87.78
2022-09-10T06:59:32.158Z,88.19
2022-09-10T07:01:58.686Z,87.89
2022-09-10T07:04:25.190Z,87.62
2022-09-10T07:06:51.868Z,87.84
2022-09-10T07:09:18.378Z,87.63
2022-09-10T07:11:45.084Z,87.85
2022-09-10T07:14:12.672Z,87.78
2022-09-10T07:16:41.953Z,88.02
2022-09-10T07:19:13.580Z,88.04
2022-09-10T07:21:40.245Z,88.28
2022-09-10T07:24:07.063Z,88.11
2022-09-10T07:26:34.082Z,88.48
2022-09-10T07:29:00.619Z,88.15
2022-09-10T07:31:30.105Z,88.55
2022-09-10T07:34:01.848Z,88.89
2022-09-10T07:36:30.017Z,88.83
2022-09-10T07:38:58.856Z,88.91
2022-09-10T07:41:29.520Z,88.50
2022-09-10T07:43:56.533Z,88.75
2022-09-10T07:46:25.576Z,88.75
2022-09-10T07:49:00.853Z,88.49
2022-09-10T07:51:33.178Z,88.83
2022-09-10T07:54:00.478Z,89.13
2022-09-10T08:35:59.738Z,88.91
2022-09-10T08:38:30.715Z,88.96
2022-09-10T08:41:00.682Z,89.29
2022-09-10T08:43:35.395Z,89.19
2022-09-10T08:46:06.176Z,89.11
2022-09-10T08:48:37.594Z,89.30
2022-09-10T08:51:11.054Z,89.04
2022-09-10T08:53:55.879Z,89.20
2022-09-10T08:56:23.715Z,89.17
2022-09-10T08:59:05.720Z,89.10
2022-09-10T09:02:01.986Z,88.76
2022-09-10T09:04:40.307Z,89.01
2022-09-10T09:07:15.042Z,88.78
2022-09-10T09:09:42.037Z,88.96
2022-09-10T09:12:37.861Z,88.48
2022-09-10T09:15:29.883Z,88.69
2022-09-10T09:18:11.036Z,88.77
2022-09-10T09:20:47.129Z,87.63
2022-09-10T09:23:35.422Z,88.53
2022-09-10T09:26:09.906Z,88.83
2022-09-10T09:28:48.443Z,88.75
2022-09-10T09:31:20.594Z,88.71
2022-09-10T09:33:51.483Z,88.60
2022-09-10T09:36:23.668Z,88.51
2022-09-10T09:38:50.948Z,88.67
2022-09-10T09:41:27.134Z,88.67
2022-09-10T09:44:06.814Z,88.30
2022-09-10T09:46:34.529Z,87.94
2022-09-10T09:49:02.388Z,87.49
2022-09-10T09:51:35.808Z,86.96
2022-09-10T09:56:59.570Z,86.28
2022-09-10T09:59:35.452Z,86.79
2022-09-10T10:02:19.129Z,86.07
2022-09-10T10:05:09.291Z,85.44
2022-09-10T10:07:36.446Z,85.27
2022-09-10T10:10:07.828Z,85.05
2022-09-10T10:12:49.207Z,84.00
2022-09-10T10:15:37.249Z,82.63
2022-09-10T10:18:28.693Z,82.26
2022-09-10T10:21:31.962Z,82.54
2022-09-10T10:23:59.124Z,82.86
2022-09-10T10:26:30.902Z,83.18
2022-09-10T10:29:06.689Z,83.17
2022-09-10T10:31:45.723Z,81.34
2022-09-10T10:34:17.266Z,80.10
2022-09-10T10:36:57.333Z,78.90
2022-09-10T10:40:01.277Z,78.95
2022-09-10T10:42:54.765Z,78.29
2022-09-10T10:46:01.227Z,77.10
2022-09-10T10:48:39.563Z,76.58
2022-09-10T10:51:16.571Z,76.24
2022-09-10T10:54:24.863Z,77.04
2022-09-10T10:57:12.333Z,76.66
2022-09-10T11:00:01.237Z,76.70
2022-09-10T11:02:54.573Z,77.01
2022-09-10T11:05:45.265Z,76.65
2022-09-10T11:08:20.258Z,77.49
2022-09-10T11:10:54.633Z,76.83
2022-09-10T11:13:50.501Z,76.69
2022-09-10T11:16:26.904Z,77.18
2022-09-10T11:19:06.003Z,77.75
2022-09-10T11:21:43.197Z,76.81
2022-09-10T11:24:20.189Z,75.19
2022-09-10T11:26:56.615Z,75.80
2022-09-10T11:29:47.285Z,74.52
2022-09-10T11:32:32.596Z,76.09
2022-09-10T11:35:31.198Z,73.24
2022-09-10T11:38:26.657Z,73.87
2022-09-10T11:41:16.330Z,74.44
2022-09-10T11:43:52.901Z,74.85
2022-09-10T11:46:39.048Z,73.05
2022-09-10T11:49:20.867Z,75.35
2022-09-10T11:51:48.142Z,73.35
2022-09-10T11:54:18.068Z,73.28
2022-09-10T11:56:50.236Z,72.25
2022-09-10T11:59:29.090Z,72.35
2022-09-10T12:02:32.748Z,73.05
2022-09-10T12:05:31.301Z,71.22
2022-09-10T12:08:32.720Z,71.58
2022-09-10T12:11:15.223Z,70.67
2022-09-10T12:13:44.674Z,70.17
2022-09-10T12:16:43.848Z,70.76
2022-09-10T12:19:26.776Z,70.58
2022-09-10T12:21:59.710Z,69.87
2022-09-10T12:24:43.175Z,69.00
2022-09-10T12:27:18.539Z,70.23
2022-09-10T12:29:45.130Z,69.68
2022-09-10T12:32:37.847Z,69.08
2022-09-10T12:35:32.740Z,67.93
2022-09-10T12:38:36.880Z,66.16
2022-09-10T12:41:08.888Z,64.52
2022-09-10T12:43:41.803Z,65.52
2022-09-10T12:46:16.714Z,64.13
2022-09-10T12:48:51.234Z,64.92
2022-09-10T12:51:25.475Z,64.69
2022-09-10T12:54:27.303Z,64.64
2022-09-10T12:57:33.682Z,66.00
2022-09-10T13:00:19.619Z,66.51
2022-09-10T13:02:54.560Z,67.12
2022-09-10T13:06:09.716Z,67.71
2022-09-10T13:08:45.714Z,67.86
2022-09-10T13:11:23.864Z,67.69
2022-09-10T13:14:02.045Z,68.15
2022-09-10T13:16:30.628Z,67.92
2022-09-10T13:19:19.998Z,68.04
2022-09-10T13:21:48.561Z,68.13
2022-09-10T13:24:36.193Z,66.97
2022-09-10T13:27:34.569Z,67.51
2022-09-10T13:30:23.295Z,68.05
2022-09-10T13:33:04.147Z,68.45
2022-09-10T13:36:12.335Z,68.48
2022-09-10T13:39:09.928Z,67.84
2022-09-10T13:42:22.295Z,68.62
2022-09-10T13:45:10.001Z,68.24
2022-09-10T13:47:47.403Z,68.67
2022-09-10T13:50:23.734Z,75.82
2022-09-10T13:52:55.043Z,75.63
2022-09-10T13:55:31.157Z,77.17
2022-09-10T13:58:04.660Z,79.54
2022-09-10T14:00:40.316Z,79.43
2022-09-10T14:03:22.807Z,78.20
2022-09-10T14:05:54.532Z,78.88
2022-09-10T14:08:38.410Z,78.24
2022-09-10T14:11:14.632Z,78.34
2022-09-10T14:13:44.284Z,78.47
2022-09-10T14:16:13.631Z,77.74
2022-09-10T14:18:45.199Z,77.44
2022-09-10T14:21:14.114Z,76.59
2022-09-10T14:23:47.840Z,76.04
2022-09-10T14:26:24.876Z,75.03
2022-09-10T14:29:04.939Z,75.05
2022-09-10T14:31:36.401Z,74.49
2022-09-10T14:34:26.990Z,74.84
2022-09-10T14:36:53.615Z,74.44
2022-09-10T14:39:22.199Z,74.31
2022-09-10T14:41:49.646Z,73.97
2022-09-10T14:44:22.298Z,73.73
2022-09-10T14:47:14.796Z,72.00
2022-09-10T14:49:47.456Z,71.19
2022-09-10T14:52:14.862Z,72.31
2022-09-10T14:54:43.390Z,71.93
2022-09-10T14:57:15.473Z,72.33
2022-09-10T14:59:45.877Z,72.17
2022-09-10T15:02:17.274Z,72.19
2022-09-10T15:04:44.423Z,72.43
2022-09-10T15:07:11.862Z,71.76
2022-09-10T15:09:38.550Z,72.00
2022-09-10T15:12:16.667Z,71.02
2022-09-10T15:14:43.299Z,69.65
2022-09-10T15:17:14.108Z,68.70
2022-09-10T15:19:41.024Z,69.50
2022-09-10T15:22:07.673Z,68.75
2022-09-10T15:24:52.487Z,68.61
2022-09-10T15:27:22.537Z,68.52
2022-09-10T15:29:49.261Z,68.60
2022-09-10T15:32:15.835Z,68.32
2022-09-10T15:34:46.768Z,68.35
2022-09-10T15:37:13.373Z,67.96
2022-09-10T15:39:41.719Z,68.02
2022-09-10T15:42:08.325Z,68.01
2022-09-10T15:44:35.115Z,66.78
2022-09-10T15:47:02.287Z,66.98
2022-09-10T15:49:29.787Z,66.12
2022-09-10T15:51:57.229Z,65.29
2022-09-10T15:54:24.100Z,65.69
2022-09-10T15:56:51.206Z,65.57
2022-09-10T15:59:17.896Z,64.63
2022-09-10T16:01:44.404Z,65.13
2022-09-10T16:04:10.965Z,65.52
2022-09-10T16:06:40.241Z,64.90
2022-09-10T16:09:10.421Z,64.92
2022-09-10T16:11:39.544Z,64.92
2022-09-10T16:14:07.916Z,64.92
2022-09-10T16:16:37.322Z,64.68
2022-09-10T16:19:05.470Z,64.88
2022-09-10T16:21:35.021Z,64.55
2022-09-10T16:24:02.492Z,64.76
2022-09-10T16:26:34.597Z,64.13
2022-09-10T16:29:04.026Z,64.34
2022-09-10T16:31:39.076Z,64.25
2022-09-10T16:34:08.797Z,64.57
2022-09-10T16:36:37.536Z,64.94
2022-09-10T16:39:07.346Z,64.79
2022-09-10T16:41:34.008Z,64.88
2022-09-10T16:44:01.103Z,64.77
2022-09-10T16:46:28.377Z,64.76
2022-09-10T16:48:56.344Z,64.78
2022-09-10T16:51:25.548Z,65.01
2022-09-10T16:53:56.831Z,64.83
2022-09-10T16:56:25.419Z,65.21
2022-09-10T16:58:52.026Z,65.91
2022-09-10T17:01:21.319Z,66.95
2022-09-10T17:03:52.383Z,66.58
2022-09-10T17:06:24.553Z,67.11
2022-09-10T17:08:53.651Z,67.18
2022-09-10T17:11:21.060Z,67.49
2022-09-10T17:13:48.256Z,67.96
2022-09-10T17:16:21.113Z,68.32
2022-09-10T17:18:54.314Z,68.60
2022-09-10T17:21:20.924Z,68.14
2022-09-10T17:23:47.485Z,68.83
2022-09-10T17:26:14.119Z,68.97
2022-09-10T17:28:41.022Z,68.64
2022-09-10T17:31:07.755Z,69.55
2022-09-10T17:33:34.322Z,69.59
2022-09-10T17:36:03.297Z,69.27
2022-09-10T17:38:33.436Z,68.78
2022-09-10T17:41:03.995Z,69.95
2022-09-10T17:43:37.287Z,69.61
2022-09-10T17:46:08.109Z,69.76
2022-09-10T17:48:35.834Z,71.06
2022-09-10T17:51:02.580Z,69.82
2022-09-10T17:53:29.141Z,70.33
2022-09-10T17:56:01.922Z,70.04
2022-09-10T17:58:28.459Z,70.63
2022-09-10T18:00:58.631Z,70.65
2022-09-10T18:09:16.932Z,70.75
2022-09-10T18:11:44.081Z,70.46
2022-09-10T18:14:18.824Z,70.45
2022-09-10T18:16:46.334Z,70.68
2022-09-10T18:19:16.059Z,71.05
2022-09-10T18:21:45.262Z,70.68
2022-09-10T18:24:17.228Z,70.93
2022-09-10T18:26:47.140Z,70.77
2022-09-10T18:29:23.859Z,71.76
2022-09-10T18:31:56.071Z,70.73
2022-09-10T18:34:27.929Z,71.41
2022-09-10T18:36:59.763Z,71.41
2022-09-10T18:39:27.961Z,71.86
2022-09-10T18:41:55.529Z,71.20
2022-09-10T18:44:24.956Z,71.25
2022-09-10T18:46:52.951Z,71.14
2022-09-10T18:49:21.710Z,71.47
2022-09-10T18:51:52.083Z,71.48
2022-09-10T18:54:20.303Z,71.41
2022-09-10T18:56:48.647Z,71.61
2022-09-10T18:59:20.299Z,72.06
2022-09-10T19:01:48.385Z,71.90
2022-09-10T19:04:17.869Z,72.03
2022-09-10T19:06:46.966Z,71.97
2022-09-10T19:09:18.328Z,72.94
2022-09-10T19:11:48.158Z,72.51
2022-09-10T19:14:18.193Z,72.20
2022-09-10T19:16:46.997Z,72.82
2022-09-10T19:19:18.835Z,73.03
2022-09-10T19:21:47.635Z,74.98
2022-09-10T19:24:15.835Z,73.88
2022-09-10T19:26:42.881Z,73.60
2022-09-10T19:29:17.325Z,74.51
2022-09-10T19:31:45.739Z,74.30
2022-09-10T19:34:15.526Z,74.57
2022-09-10T19:36:43.477Z,74.50
2022-09-10T19:39:13.093Z,74.28
2022-09-10T19:41:41.806Z,74.19
2022-09-10T19:44:09.897Z,74.25
2022-09-10T19:46:37.051Z,74.38
2022-09-10T19:49:05.225Z,74.25
2022-09-10T19:51:34.669Z,74.52
2022-09-10T19:54:02.145Z,74.47
2022-09-10T19:56:33.169Z,74.67
2022-09-10T19:59:00.387Z,74.75
2022-09-10T20:01:32.822Z,76.31
2022-09-10T20:04:05.895Z,75.95
2022-09-10T20:06:34.192Z,75.20
2022-09-10T20:09:02.406Z,75.26
2022-09-10T20:11:32.443Z,75.36
2022-09-10T20:14:08.843Z,75.06
2022-09-10T20:16:39.443Z,75.60
2022-09-10T20:19:06.796Z,75.61
2022-09-10T20:21:34.057Z,75.65
2022-09-10T20:24:00.575Z,75.41
2022-09-10T20:26:31.984Z,76.12
2022-09-10T20:29:01.359Z,75.78
2022-09-10T20:31:31.504Z,75.94
2022-09-10T20:33:59.997Z,75.43
2022-09-10T20:36:28.395Z,75.76
2022-09-10T20:38:56.256Z,75.64
2022-09-10T20:41:24.444Z,75.74
2022-09-10T20:43:53.126Z,75.65
2022-09-10T20:46:22.526Z,75.83
2022-09-10T20:48:51.020Z,76.10
2022-09-10T20:51:19.192Z,76.43
2022-09-10T20:53:46.687Z,76.24
2022-09-10T20:56:15.526Z,76.35
2022-09-10T20:58:42.584Z,76.00
2022-09-10T21:01:14.811Z,76.35
2022-09-10T21:03:41.423Z,76.50
2022-09-10T21:06:09.519Z,76.24
2022-09-10T21:08:37.254Z,76.72
2022-09-10T21:11:09.731Z,76.70
2022-09-10T21:13:37.880Z,76.71
2022-09-10T21:16:17.266Z,77.70
2022-09-10T21:18:53.748Z,77.03
2022-09-10T21:21:25.563Z,76.92
2022-09-10T21:23:56.670Z,78.20
2022-09-10T21:26:25.839Z,77.53
2022-09-10T21:28:56.060Z,77.38
2022-09-10T21:31:24.055Z,78.19
2022-09-10T21:33:51.218Z,78.31
2022-09-10T21:36:19.967Z,78.03
2022-09-10T21:38:48.240Z,77.70
2022-09-10T21:41:16.867Z,78.02
2022-09-10T21:43:47.399Z,78.14
2022-09-10T21:46:14.713Z,78.07
2022-09-10T21:48:42.444Z,77.70
2022-09-10T21:51:17.036Z,78.14
2022-09-10T21:53:44.496Z,77.43
2022-09-10T21:56:14.982Z,78.00
2022-09-10T21:58:43.142Z,77.80
2022-09-10T22:01:12.244Z,78.04
2022-09-10T22:03:39.878Z,77.56
2022-09-10T22:06:15.075Z,78.49
2022-09-10T22:08:44.120Z,77.81
2022-09-10T22:11:15.465Z,78.65
2022-09-10T22:13:43.543Z,78.20
2022-09-10T22:16:14.412Z,78.04
2022-09-10T22:18:41.684Z,78.58
2022-09-10T22:21:09.216Z,78.85
2022-09-10T22:28:46.609Z,78.65
2022-09-10T22:31:17.299Z,79.19
2022-09-10T22:33:46.055Z,79.01
2022-09-10T22:36:20.983Z,78.99
2022-09-10T22:38:52.322Z,79.01
2022-09-10T22:41:19.589Z,78.32
2022-09-10T22:43:46.404Z,78.55
2022-09-10T22:46:13.401Z,78.86
2022-09-10T22:48:42.919Z,78.87
2022-09-10T22:51:12.902Z,78.71
2022-09-10T22:53:41.079Z,78.57
2022-09-10T22:56:09.171Z,78.56
2022-09-10T22:58:36.397Z,78.25
2022-09-10T23:01:06.873Z,78.46
2022-09-10T23:03:34.235Z,78.64
2022-09-10T23:06:06.349Z,79.23
2022-09-10T23:08:36.852Z,78.97
2022-09-10T23:11:26.126Z,80.42
2022-09-10T23:13:57.392Z,79.37
2022-09-10T23:16:28.967Z,79.11
2022-09-10T23:18:57.016Z,79.59
2022-09-10T23:21:25.967Z,79.82
2022-09-10T23:23:56.005Z,79.61
2022-09-10T23:26:24.419Z,79.45
2022-09-10T23:28:51.527Z,79.65
2022-09-10T23:31:22.588Z,79.61
2022-09-10T23:33:58.162Z,79.76
2022-09-10T23:36:31.412Z,79.93
2022-09-10T23:38:58.785Z,79.42
2022-09-10T23:41:26.022Z,79.01
2022-09-10T23:43:52.687Z,78.95
2022-09-10T23:46:19.228Z,78.71
2022-09-10T23:48:46.403Z,78.66
2022-09-10T23:51:15.721Z,79.13
2022-09-10T23:53:45.422Z,79.00
2022-09-10T23:56:15.991Z,79.44
2022-09-10T23:58:42.695Z,78.92
